Time;durP1;ratioP1;P1;durP2;ratioP2;P2;SDS_P1;SDS_P2;PMS_P1;PMS_P2;Temp;Humidity;BMP_temperature;BMP_pressure;BME280_temperature;BME280_humidity;BME280_pressure;Samples;Min_cycle;Max_cycle;Signal;HPM_P1;HPM_P2
2022/06/01 00:01:52;;;;;;;5.67;4.67;;;;;;;24.24;55.80;100829.34;1782118;79;21155;-77
2022/06/01 00:04:19;;;;;;;6.12;4.28;;;;;;;24.24;55.79;100829.34;1782518;79;21570;-77
2022/06/01 00:06:45;;;;;;;7.75;4.62;;;;;;;24.24;55.79;100825.17;1782494;79;21048;-78
2022/06/01 00:09:17;;;;;;;5.15;4.25;;;;;;;24.24;55.77;100828.52;1782208;80;21085;-78
2022/06/01 00:11:43;;;;;;;6.70;4.22;;;;;;;24.24;55.76;100825.75;1782570;79;21056;-78
2022/06/01 00:14:10;;;;;;;5.72;4.35;;;;;;;24.24;55.74;100823.78;1760773;80;21262;-78
2022/06/01 00:16:36;;;;;;;6.95;4.47;;;;;;;24.24;55.75;100827.14;1782209;80;21630;-77
2022/06/01 00:19:02;;;;;;;9.03;5.03;;;;;;;24.25;55.75;100823.20;1782182;79;21048;-77
2022/06/01 00:21:29;;;;;;;6.30;4.67;;;;;;;24.24;55.74;100817.41;1782527;80;21040;-78
2022/06/01 00:23:55;;;;;;;6.12;4.40;;;;;;;24.23;55.71;100815.20;1781951;79;21194;-77
2022/06/01 00:26:21;;;;;;;4.60;4.10;;;;;;;24.23;55.70;100809.64;1782402;79;21314;-77
2022/06/01 00:28:47;;;;;;;4.65;4.12;;;;;;;24.24;55.70;100810.45;1782550;79;21016;-77
2022/06/01 00:31:13;;;;;;;5.90;4.60;;;;;;;24.24;55.69;100807.67;1782207;79;21080;-77
2022/06/01 00:33:40;;;;;;;5.70;4.53;;;;;;;24.23;55.70;100806.08;1734083;80;21041;-77
2022/06/01 00:36:07;;;;;;;6.28;4.30;;;;;;;24.23;55.68;100809.64;1782314;79;21116;-78
2022/06/01 00:38:34;;;;;;;6.25;4.22;;;;;;;24.24;55.67;100809.88;1782154;79;21169;-77
2022/06/01 00:41:00;;;;;;;5.30;3.95;;;;;;;24.23;55.66;100805.47;1800805;79;21047;-77
2022/06/01 00:43:44;;;;;;;6.60;4.37;;;;;;;24.22;55.63;100794.14;1783185;78;21087;-77
2022/06/01 00:46:11;;;;;;;6.78;4.47;;;;;;;24.22;55.62;100789.15;1782851;79;21527;-77
2022/06/01 00:48:40;;;;;;;5.65;4.35;;;;;;;24.21;55.64;100781.38;1783243;79;21042;-77
2022/06/01 00:51:08;;;;;;;4.22;3.80;;;;;;;24.22;55.61;100786.37;1782907;79;21530;-78
2022/06/01 00:53:35;;;;;;;5.35;4.37;;;;;;;24.22;55.62;100787.77;1782677;79;21001;-77
2022/06/01 00:56:06;;;;;;;6.30;4.30;;;;;;;24.21;55.59;100782.77;1783127;79;21005;-78
2022/06/01 00:58:39;;;;;;;5.42;4.22;;;;;;;24.21;55.57;100784.16;1783082;79;21052;-77
2022/06/01 01:01:08;;;;;;;5.53;4.47;;;;;;;24.21;55.58;100780.56;1782859;79;21547;-77
2022/06/01 01:03:36;;;;;;;5.40;4.30;;;;;;;24.20;55.57;100785.31;1783145;79;21469;-78
2022/06/01 01:06:19;;;;;;;6.50;4.22;;;;;;;24.20;55.56;100786.70;1772503;80;21076;-77
2022/06/01 01:08:46;;;;;;;5.97;4.37;;;;;;;24.21;55.56;100773.62;1782935;79;21044;-78
2022/06/01 01:11:13;;;;;;;5.17;3.90;;;;;;;24.21;55.54;100770.84;1783062;80;20935;-77
2022/06/01 01:13:43;;;;;;;6.72;3.98;;;;;;;24.20;55.54;100770.02;1772068;80;21084;-77
2022/06/01 01:16:10;;;;;;;5.75;4.17;;;;;;;24.20;55.54;100771.41;1782909;79;21170;-77
2022/06/01 01:18:43;;;;;;;5.90;3.83;;;;;;;24.18;55.53;100777.91;1772033;80;21036;-77
2022/06/01 01:21:39;;;;;;;4.45;3.72;;;;;;;24.19;55.52;100773.95;1781132;80;21099;-77
2022/06/01 01:24:23;;;;;;;5.65;4.20;;;;;;;24.19;55.52;100769.00;1782717;79;21094;-77
2022/06/01 01:26:51;;;;;;;5.10;3.92;;;;;;;24.19;55.51;100767.61;1793657;79;21074;-77
2022/06/01 01:29:34;;;;;;;5.08;3.98;;;;;;;24.19;55.50;100771.77;1793464;79;21193;-77
2022/06/01 01:32:00;;;;;;;7.00;4.17;;;;;;;24.18;55.50;100772.34;1793347;80;21521;-77
2022/06/01 01:34:27;;;;;;;7.10;4.58;;;;;;;24.18;55.48;100768.75;1793331;78;21009;-78
2022/06/01 01:36:57;;;;;;;5.80;4.03;;;;;;;24.18;55.50;100763.20;1793637;79;21062;-77
2022/06/01 01:39:24;;;;;;;6.58;4.45;;;;;;;24.18;55.51;100762.62;1792534;79;21210;-78
2022/06/01 01:41:52;;;;;;;4.78;3.72;;;;;;;24.17;55.50;100763.77;1782500;80;21155;-77
2022/06/01 01:44:29;;;;;;;7.00;4.08;;;;;;;24.17;55.51;100765.16;1782758;79;20984;-77
2022/06/01 01:46:56;;;;;;;6.37;4.08;;;;;;;24.18;55.50;100759.02;1782581;80;21537;-77
2022/06/01 01:49:26;;;;;;;8.63;4.58;;;;;;;24.18;55.51;100754.85;1783138;79;21113;-77
2022/06/01 01:51:55;;;;;;;5.05;4.20;;;;;;;24.18;55.50;100755.67;1782436;80;21081;-77
2022/06/01 01:54:49;;;;;;;5.12;3.85;;;;;;;24.18;55.48;100754.85;1782452;80;21972;-77
2022/06/01 01:57:47;;;;;;;5.50;4.22;;;;;;;24.17;55.48;100748.48;1782540;79;21054;-77
2022/06/01 02:00:34;;;;;;;6.03;4.17;;;;;;;24.18;55.47;100752.89;1782430;79;21061;-77
2022/06/01 02:03:23;;;;;;;5.25;3.90;;;;;;;24.17;55.45;100758.20;1782750;80;21067;-77
2022/06/01 02:06:24;;;;;;;5.20;4.17;;;;;;;24.17;55.46;100757.39;1731131;80;21074;-78
2022/06/01 02:09:09;;;;;;;6.05;4.10;;;;;;;24.16;55.47;100761.32;1771285;80;22288;-78
2022/06/01 02:14:45;;;;;;;4.20;3.60;;;;;;;24.14;55.46;100763.83;1770902;80;21063;-77
2022/06/01 02:17:17;;;;;;;5.60;3.80;;;;;;;24.13;55.43;100761.41;1780211;79;21063;-77
2022/06/01 02:19:51;;;;;;;5.37;3.92;;;;;;;24.13;55.45;100755.27;1797165;79;21695;-77
2022/06/01 02:22:18;;;;;;;4.78;3.80;;;;;;;24.13;55.49;100759.45;1784507;78;21578;-78
2022/06/01 02:24:44;;;;;;;4.78;3.70;;;;;;;24.13;55.48;100761.41;1741188;82;21064;-78
2022/06/01 02:27:11;;;;;;;6.00;4.00;;;;;;;24.13;55.48;100760.83;1727175;82;21082;-78
2022/06/01 02:29:48;;;;;;;5.30;3.75;;;;;;;24.13;55.49;100763.61;1749772;80;21069;-78
2022/06/01 02:32:14;;;;;;;6.95;4.10;;;;;;;24.15;55.50;100774.41;1750174;81;21529;-78
2022/06/01 02:34:41;;;;;;;6.67;3.92;;;;;;;24.13;55.49;100771.95;1750174;80;22130;-77
2022/06/01 02:37:07;;;;;;;6.35;3.60;;;;;;;24.15;55.49;100777.18;1750441;82;21106;-78
2022/06/01 02:39:34;;;;;;;5.50;3.85;;;;;;;24.14;55.47;100779.72;1750475;80;21079;-78
2022/06/01 02:42:25;;;;;;;6.55;3.90;;;;;;;24.14;55.47;100773.55;1754478;81;21502;-78
2022/06/01 02:44:59;;;;;;;;;;;;;;;24.15;55.49;100781.35;1761678;81;20993;-77
2022/06/01 02:47:27;;;;;;;6.05;3.50;;;;;;;24.13;55.46;100780.30;1756637;81;21349;-78
2022/06/01 02:49:53;;;;;;;5.03;4.00;;;;;;;24.13;55.43;100780.86;1751149;82;21413;-78
2022/06/01 02:52:20;;;;;;;5.85;3.60;;;;;;;24.12;55.47;100787.00;1750999;82;21046;-78
2022/06/01 02:54:46;;;;;;;5.58;3.60;;;;;;;24.13;55.47;100790.59;1750705;80;21602;-78
2022/06/01 02:57:14;;;;;;;4.50;3.40;;;;;;;24.13;55.43;100790.59;1751146;81;21065;-77
2022/06/01 02:59:41;;;;;;;4.55;3.77;;;;;;;24.13;55.47;100797.55;1751140;82;21253;-78
2022/06/01 03:02:09;;;;;;;4.92;3.65;;;;;;;24.13;55.46;100798.94;1750562;80;21101;-77
2022/06/01 03:04:40;;;;;;;5.40;3.33;;;;;;;24.12;55.44;100807.84;1728877;82;21105;-77
2022/06/01 03:07:07;;;;;;;5.97;3.95;;;;;;;24.12;55.44;100803.67;1750338;80;21598;-78
2022/06/01 03:09:34;;;;;;;5.17;3.50;;;;;;;24.13;55.43;100810.87;1750805;82;21600;-78
2022/06/01 03:12:00;;;;;;;5.60;3.65;;;;;;;24.13;55.42;100805.88;1729708;82;21204;-77
2022/06/01 03:14:27;;;;;;;5.72;3.62;;;;;;;24.13;55.41;100808.09;1750887;82;21077;-77
2022/06/01 03:16:55;;;;;;;4.10;3.25;;;;;;;24.14;55.40;100814.47;1750798;81;21058;-77
2022/06/01 03:19:21;;;;;;;4.97;3.70;;;;;;;24.14;55.39;100815.86;1750759;81;21065;-77
2022/06/01 03:21:48;;;;;;;4.22;3.45;;;;;;;24.14;55.36;100808.91;1751836;80;21093;-78
2022/06/01 03:24:14;;;;;;;4.95;3.37;;;;;;;24.14;55.39;100806.13;1783442;80;21188;-77
2022/06/01 03:26:42;;;;;;;4.67;3.80;;;;;;;24.14;55.38;100813.08;1783481;80;21073;-77
2022/06/01 03:29:08;;;;;;;5.33;3.75;;;;;;;24.14;55.35;100806.13;1761940;80;21474;-78
2022/06/01 03:31:35;;;;;;;4.78;3.37;;;;;;;24.13;55.36;100801.14;1783291;80;21045;-77
2022/06/01 03:34:01;;;;;;;5.40;3.77;;;;;;;24.14;55.35;100806.13;1783523;80;21037;-77
2022/06/01 03:36:27;;;;;;;5.92;3.50;;;;;;;24.14;55.35;100804.73;1783429;80;20961;-77
2022/06/01 03:38:53;;;;;;;5.83;3.50;;;;;;;24.14;55.36;100809.69;1761229;80;21013;-78
2022/06/01 03:41:20;;;;;;;5.08;3.85;;;;;;;24.14;55.35;100810.30;1783548;79;21046;-78
2022/06/01 03:46:33;;;;;;;7.83;3.85;;;;;;;24.14;55.34;100808.91;1783392;80;21576;-77
2022/06/01 03:49:00;;;;;;;4.33;3.77;;;;;;;24.14;55.33;100811.69;1783824;78;22102;-77
2022/06/01 03:51:26;;;;;;;4.45;3.10;;;;;;;24.14;55.33;100808.30;1783506;80;21023;-77
2022/06/01 03:53:55;;;;;;;4.90;3.62;;;;;;;24.15;55.33;100809.15;1783326;80;21491;-78
2022/06/01 03:56:22;;;;;;;5.55;3.80;;;;;;;24.16;55.31;100816.91;1782619;80;21766;-77
2022/06/01 03:58:50;;;;;;;5.15;3.55;;;;;;;24.15;55.33;100818.88;1783663;80;21053;-77
2022/06/01 04:01:17;;;;;;;5.60;3.60;;;;;;;24.14;55.30;100819.42;1783320;80;21166;-79
2022/06/01 04:03:43;;;;;;;5.30;3.60;;;;;;;24.14;55.29;100818.63;1783862;80;21025;-77
2022/06/01 04:06:09;;;;;;;4.62;3.47;;;;;;;24.15;55.29;100823.05;1783741;80;21041;-77
2022/06/01 04:08:35;;;;;;;5.72;3.83;;;;;;;24.15;55.30;100825.83;1783370;80;21529;-78
2022/06/01 04:11:01;;;;;;;6.45;3.70;;;;;;;24.15;55.29;100825.83;1783621;80;21089;-78
2022/06/01 04:13:28;;;;;;;5.08;3.70;;;;;;;24.15;55.28;100832.78;1783557;80;21220;-78
2022/06/01 04:15:54;;;;;;;3.98;3.37;;;;;;;24.15;55.27;100831.39;1783252;80;20983;-77
2022/06/01 04:18:26;;;;;;;4.30;3.40;;;;;;;24.16;55.26;100829.42;1761227;80;21433;-78
2022/06/01 04:20:53;;;;;;;4.22;3.45;;;;;;;24.16;55.26;100829.42;1783485;80;20976;-79
2022/06/01 04:23:19;;;;;;;5.80;3.37;;;;;;;24.16;55.26;100826.64;1786454;80;21111;-78
2022/06/01 04:25:46;;;;;;;6.28;3.92;;;;;;;24.15;55.25;100824.44;1758043;80;21507;-78
2022/06/01 04:28:12;;;;;;;4.78;3.85;;;;;;;24.16;55.27;100820.52;1789123;78;21016;-78
2022/06/01 04:30:38;;;;;;;6.15;3.90;;;;;;;24.16;55.22;100821.08;1788861;80;21009;-77
2022/06/01 04:33:05;;;;;;;5.53;3.40;;;;;;;24.16;55.24;100822.47;1789061;80;21484;-77
2022/06/01 04:35:31;;;;;;;5.47;3.45;;;;;;;24.14;55.25;100823.59;1789244;79;21044;-78
2022/06/01 04:38:12;;;;;;;4.60;3.50;;;;;;;24.16;55.24;100823.29;1788891;80;21471;-77
2022/06/01 04:40:25;;;;;;;8.58;3.77;;;;;;;24.16;55.23;100831.62;1785769;80;21515;-78
2022/06/01 04:42:52;;;;;;;5.45;3.20;;;;;;;24.16;55.23;100834.41;1784147;79;21056;-77
2022/06/01 04:45:19;;;;;;;4.30;3.62;;;;;;;24.16;55.24;100831.62;1780281;79;21031;-78
2022/06/01 04:47:45;;;;;;;4.85;3.17;;;;;;;24.17;55.24;100835.23;1780621;79;21106;-78
2022/06/01 04:50:12;;;;;;;5.92;3.70;;;;;;;24.17;55.24;100838.01;1780730;80;21276;-77
2022/06/01 04:52:38;;;;;;;7.33;3.67;;;;;;;24.17;55.23;100833.84;1780199;80;21031;-78
2022/06/01 04:55:07;;;;;;;5.15;3.17;;;;;;;24.16;55.23;100835.80;1780542;80;20996;-77
2022/06/01 04:57:33;;;;;;;4.03;3.33;;;;;;;24.17;55.21;100831.88;1780298;80;20955;-78
2022/06/01 05:00:00;;;;;;;5.15;3.40;;;;;;;24.17;55.20;100833.27;1780379;80;21039;-77
2022/06/01 05:02:26;;;;;;;4.80;3.60;;;;;;;24.17;55.18;100831.88;1780538;79;21528;-78
2022/06/01 05:04:52;;;;;;;5.30;3.33;;;;;;;24.17;55.18;100831.88;1780415;79;21426;-78
2022/06/01 05:07:25;;;;;;;4.50;3.55;;;;;;;24.17;55.18;100834.66;1780297;80;21458;-78
2022/06/01 05:09:51;;;;;;;5.37;3.65;;;;;;;24.18;55.18;100836.86;1780142;79;21574;-77
2022/06/01 05:12:17;;;;;;;5.58;3.85;;;;;;;24.17;55.18;100838.82;1780399;79;21070;-78
2022/06/01 05:14:43;;;;;;;5.10;3.47;;;;;;;24.18;55.15;100841.84;1780356;79;21050;-78
2022/06/01 05:17:10;;;;;;;3.80;3.40;;;;;;;24.18;55.13;100835.47;1780433;80;20995;-78
2022/06/01 05:19:36;;;;;;;5.25;3.40;;;;;;;24.18;55.15;100836.28;1780514;80;21042;-78
2022/06/01 05:22:03;;;;;;;5.12;3.58;;;;;;;24.18;55.14;100834.08;1782735;79;21038;-78
2022/06/01 05:24:35;;;;;;;3.77;3.37;;;;;;;24.18;55.13;100839.06;1804724;79;21103;-78
2022/06/01 05:27:01;;;;;;;4.87;3.25;;;;;;;24.18;55.11;100836.28;1804875;79;21108;-78
2022/06/01 05:29:28;;;;;;;4.53;3.55;;;;;;;24.19;55.11;100837.11;1782249;79;21131;-78
2022/06/01 05:31:54;;;;;;;5.00;3.52;;;;;;;24.18;55.08;100841.03;1804782;79;21063;-78
2022/06/01 05:34:21;;;;;;;4.87;3.90;;;;;;;24.18;55.07;100837.67;1804939;79;21052;-79
2022/06/01 05:36:48;;;;;;;6.75;3.85;;;;;;;24.19;55.06;100842.66;1782388;79;21052;-78
2022/06/01 05:39:14;;;;;;;4.90;4.08;;;;;;;24.20;55.08;100842.88;1804893;79;21455;-77
2022/06/01 05:41:40;;;;;;;5.67;4.00;;;;;;;24.19;55.05;100846.23;1805119;79;20917;-77
2022/06/01 05:44:07;;;;;;;4.55;3.95;;;;;;;24.19;55.05;100849.61;1809711;79;21036;-78
2022/06/01 05:46:36;;;;;;;6.53;3.85;;;;;;;24.20;55.07;100843.69;1774596;79;21033;-78
2022/06/01 05:49:04;;;;;;;5.50;4.65;;;;;;;24.20;55.05;100842.88;1763818;80;21539;-77
2022/06/01 05:51:30;;;;;;;5.50;3.92;;;;;;;24.20;55.03;100850.64;1774080;80;21052;-77
2022/06/01 05:53:56;;;;;;;5.37;3.92;;;;;;;24.20;55.03;100848.44;1774188;80;21013;-77
2022/06/01 05:56:22;;;;;;;6.20;4.05;;;;;;;24.20;55.03;100847.86;1774157;79;21112;-78
2022/06/01 05:58:50;;;;;;;5.75;3.85;;;;;;;24.20;55.04;100839.52;1774128;79;21029;-78
2022/06/01 06:01:17;;;;;;;5.80;3.98;;;;;;;24.21;55.05;100850.07;1774268;80;21076;-78
2022/06/01 06:03:43;;;;;;;5.80;3.70;;;;;;;24.20;55.09;100849.83;1774299;80;21089;-78
2022/06/01 06:06:13;;;;;;;5.72;4.47;;;;;;;24.19;55.12;100839.28;1723158;80;21079;-78
2022/06/01 06:08:41;;;;;;;5.75;4.17;;;;;;;24.20;55.10;100841.48;1751994;80;21059;-80
2022/06/01 06:11:07;;;;;;;7.50;4.03;;;;;;;24.19;55.12;100832.93;1719029;81;21059;-78
2022/06/01 06:13:35;;;;;;;5.42;4.60;;;;;;;24.19;55.10;100833.72;1729069;81;21046;-78
2022/06/01 06:16:07;;;;;;;8.18;4.10;;;;;;;24.20;55.10;100834.53;1747673;81;21154;-78
2022/06/01 06:18:33;;;;;;;5.03;3.62;;;;;;;24.21;55.11;100836.98;1752259;81;21049;-77
2022/06/01 06:21:00;;;;;;;5.37;4.22;;;;;;;24.21;55.09;100835.59;1726391;81;21095;-77
2022/06/01 06:23:26;;;;;;;5.35;3.92;;;;;;;24.20;55.10;100831.75;1750187;81;21065;-77
2022/06/01 06:25:52;;;;;;;6.92;4.00;;;;;;;24.21;55.07;100830.03;1783125;80;21013;-77
2022/06/01 06:28:19;;;;;;;4.95;3.77;;;;;;;24.21;55.08;100828.64;1783087;80;21128;-78
2022/06/01 06:30:45;;;;;;;5.78;4.15;;;;;;;24.23;55.09;100833.87;1783247;80;21589;-78
2022/06/01 06:33:12;;;;;;;5.35;4.30;;;;;;;24.22;55.11;100826.69;1761474;80;21064;-78
2022/06/01 06:35:38;;;;;;;4.80;4.03;;;;;;;24.22;55.09;100829.46;1783076;80;21077;-78
2022/06/01 06:38:05;;;;;;;4.95;4.03;;;;;;;24.22;55.09;100826.11;1783463;79;21056;-77
2022/06/01 06:40:31;;;;;;;5.15;3.85;;;;;;;24.24;55.08;100828.52;1783447;80;21791;-77
2022/06/01 06:42:57;;;;;;;5.10;3.90;;;;;;;24.23;55.07;100829.10;1784327;79;20955;-78
2022/06/01 06:45:23;;;;;;;4.60;3.92;;;;;;;24.24;55.05;100832.12;1787985;80;21043;-77
2022/06/01 06:47:50;;;;;;;5.28;3.50;;;;;;;24.25;55.02;100829.59;1766080;80;21047;-77
2022/06/01 06:50:18;;;;;;;5.75;4.10;;;;;;;24.26;55.02;100831.80;1766233;80;21496;-77
2022/06/01 06:52:44;;;;;;;10.55;3.75;;;;;;;24.25;55.04;100835.14;1788357;80;21212;-77
2022/06/01 06:55:10;;;;;;;7.90;3.95;;;;;;;24.26;55.01;100833.18;1788310;80;21597;-78
2022/06/01 06:57:37;;;;;;;4.25;3.85;;;;;;;24.26;55.01;100832.61;1788115;80;21008;-78
2022/06/01 07:00:08;;;;;;;4.20;3.58;;;;;;;24.26;55.04;100832.61;1788440;80;21040;-77
2022/06/01 07:02:35;;;;;;;5.60;4.03;;;;;;;24.28;55.05;100829.47;1788322;80;21355;-78
2022/06/01 07:05:04;;;;;;;4.53;3.85;;;;;;;24.27;55.03;100825.91;1788269;80;21541;-78
2022/06/01 07:07:31;;;;;;;5.67;3.85;;;;;;;24.28;55.03;100821.13;1787871;80;21013;-78
2022/06/01 07:09:57;;;;;;;5.47;3.98;;;;;;;24.28;54.99;100823.33;1788388;80;21031;-77
2022/06/01 07:12:23;;;;;;;4.70;3.87;;;;;;;24.29;54.99;100822.77;1788042;80;21048;-78
2022/06/01 07:14:49;;;;;;;4.70;3.50;;;;;;;24.28;55.02;100816.38;1788518;80;21346;-77
2022/06/01 07:17:16;;;;;;;4.62;3.72;;;;;;;24.29;55.02;100821.37;1788543;80;21042;-77
2022/06/01 07:19:48;;;;;;;4.62;3.42;;;;;;;24.29;55.01;100821.37;1788225;80;20940;-77
2022/06/01 07:22:16;;;;;;;4.33;3.80;;;;;;;24.30;55.01;100827.98;1784600;80;21036;-77
2022/06/01 07:24:42;;;;;;;4.45;3.65;;;;;;;24.30;55.01;100823.00;1770377;80;21108;-77
2022/06/01 07:27:08;;;;;;;5.58;3.80;;;;;;;24.31;55.00;100828.23;1775822;80;21537;-77
2022/06/01 07:29:34;;;;;;;4.70;3.45;;;;;;;24.31;55.00;100827.42;1778299;80;22100;-78
2022/06/01 07:32:01;;;;;;;4.60;4.03;;;;;;;24.32;54.97;100834.58;1777908;79;21075;-77
2022/06/01 07:34:27;;;;;;;4.58;3.60;;;;;;;24.31;54.97;100815.72;1777744;80;21371;-78
2022/06/01 07:36:53;;;;;;;4.62;3.50;;;;;;;24.32;54.97;100825.66;1778043;80;21470;-78
2022/06/01 07:44:52;;;;;;;5.40;3.45;;;;;;;24.33;54.94;100819.53;1793940;79;21029;-77
2022/06/01 07:47:18;;;;;;;4.37;3.60;;;;;;;24.33;54.92;100821.73;1788094;80;21048;-77
2022/06/01 07:49:45;;;;;;;4.75;3.75;;;;;;;24.33;54.92;100822.31;1788371;80;21017;-78
2022/06/01 07:52:12;;;;;;;4.30;3.33;;;;;;;24.34;54.92;100815.60;1788370;80;21023;-78
2022/06/01 07:54:40;;;;;;;4.15;3.75;;;;;;;24.34;54.93;100816.41;1787996;79;21429;-77
2022/06/01 07:57:06;;;;;;;3.98;3.52;;;;;;;24.34;54.89;100816.99;1788309;79;21183;-77
2022/06/01 07:59:33;;;;;;;4.05;3.60;;;;;;;24.34;54.91;100821.98;1788319;79;21056;-77
2022/06/01 08:01:59;;;;;;;4.50;3.87;;;;;;;24.35;54.90;100820.02;1788084;78;21016;-77
2022/06/01 08:04:26;;;;;;;4.47;3.40;;;;;;;24.36;54.90;100815.48;1788407;79;21068;-77
2022/06/01 08:06:52;;;;;;;4.08;3.35;;;;;;;24.35;54.88;100811.09;1788367;79;21506;-77
2022/06/01 08:09:19;;;;;;;5.80;3.67;;;;;;;24.36;54.88;100814.09;1787999;80;21000;-77
2022/06/01 08:14:33;;;;;;;5.95;3.62;;;;;;;24.37;54.87;100816.30;1778550;80;21004;-78
2022/06/01 08:16:58;;;;;;;6.53;3.83;;;;;;;24.36;54.88;100807.14;1788343;78;21040;-77
2022/06/01 08:19:25;;;;;;;4.17;3.33;;;;;;;24.37;54.86;100814.33;1788352;80;21521;-77
2022/06/01 08:21:51;;;;;;;5.22;3.45;;;;;;;24.37;54.85;100817.11;1786482;80;21538;-77
2022/06/01 08:24:17;;;;;;;4.95;3.67;;;;;;;24.37;54.84;100821.28;1768637;80;20983;-77
2022/06/01 08:26:43;;;;;;;4.50;3.70;;;;;;;24.37;54.84;100819.89;1775092;80;20999;-78
2022/06/01 08:29:10;;;;;;;4.58;3.80;;;;;;;24.37;54.83;100821.86;1774589;80;20998;-78
2022/06/01 08:31:36;;;;;;;6.42;3.90;;;;;;;24.38;54.83;100824.88;1774857;80;21354;-77
2022/06/01 08:34:03;;;;;;;4.75;3.70;;;;;;;24.38;54.84;100818.75;1774403;80;21006;-77
2022/06/01 08:36:30;;;;;;;5.80;3.62;;;;;;;24.38;54.83;100822.09;1751420;80;21053;-78
2022/06/01 08:39:03;;;;;;;6.05;3.52;;;;;;;24.38;54.81;100821.53;1774556;80;20968;-78
2022/06/01 08:41:35;;;;;;;4.58;3.35;;;;;;;24.38;54.82;100817.36;1774673;80;21049;-77
2022/06/01 08:44:08;;;;;;;4.87;3.72;;;;;;;24.39;54.79;100825.94;1776899;80;21148;-78
2022/06/01 08:46:34;;;;;;;4.65;3.62;;;;;;;24.40;54.79;100823.37;1754031;80;21502;-78
2022/06/01 08:49:09;;;;;;;5.33;3.67;;;;;;;24.40;54.79;100819.20;1779897;79;21038;-78
2022/06/01 08:51:35;;;;;;;4.45;3.80;;;;;;;24.40;54.77;100815.03;1779458;80;21066;-77
2022/06/01 08:54:02;;;;;;;4.35;3.50;;;;;;;24.41;54.77;100818.62;1779780;80;21034;-77
2022/06/01 08:56:38;;;;;;;4.30;3.40;;;;;;;24.40;54.76;100823.37;1779874;79;21574;-77
2022/06/01 08:59:41;;;;;;;5.12;3.62;;;;;;;24.40;54.77;100823.37;1779292;79;21027;-78
2022/06/01 09:02:48;;;;;;;4.22;3.45;;;;;;;24.40;54.76;100815.63;1779789;80;21047;-79
2022/06/01 09:05:37;;;;;;;4.67;3.35;;;;;;;24.40;54.74;100821.19;1779627;79;21066;-78
2022/06/01 09:08:48;;;;;;;4.70;3.30;;;;;;;24.38;54.72;100820.70;1741370;81;21094;-78
2022/06/01 09:11:24;;;;;;;4.33;3.58;;;;;;;24.38;54.72;100815.96;1779589;79;21470;-78
2022/06/01 09:14:04;;;;;;;4.67;3.65;;;;;;;24.37;54.71;100814.33;1748147;80;21094;-78
2022/06/01 09:16:43;;;;;;;6.10;3.52;;;;;;;24.37;54.71;100807.95;1757484;79;28152;-77
2022/06/01 09:19:16;;;;;;;4.58;3.65;;;;;;;24.36;54.72;100808.53;1779877;80;21471;-78
2022/06/01 09:24:33;;;;;;;4.87;3.75;;;;;;;24.36;54.72;100805.75;1752316;79;22012;-77
2022/06/01 09:27:03;;;;;;;4.20;3.40;;;;;;;24.36;54.74;100803.54;1779632;79;20992;-78
2022/06/01 09:29:32;;;;;;;3.90;3.02;;;;;;;24.37;54.75;100806.56;1779942;80;21055;-78
2022/06/01 09:32:03;;;;;;;4.03;3.37;;;;;;;24.37;54.75;100804.59;1747739;80;21039;-78
2022/06/01 09:34:38;;;;;;;4.22;3.55;;;;;;;24.38;54.73;100806.80;1779476;80;21070;-79
2022/06/01 09:37:26;;;;;;;4.97;3.75;;;;;;;24.38;54.74;100800.67;1779763;79;21116;-78
2022/06/01 09:40:00;;;;;;;4.97;3.65;;;;;;;24.38;54.75;100802.06;1779602;79;21074;-78
2022/06/01 09:42:37;;;;;;;5.37;3.27;;;;;;;24.38;54.72;100797.07;1746775;80;21023;-78
2022/06/01 09:45:25;;;;;;;5.28;3.90;;;;;;;24.38;54.72;100795.68;1779051;79;21063;-78
2022/06/01 09:47:52;;;;;;;4.53;3.30;;;;;;;24.38;54.72;100793.72;1779862;79;21043;-78
2022/06/01 09:50:28;;;;;;;4.83;3.20;;;;;;;24.38;54.70;100795.11;1779623;80;21178;-78
2022/06/01 09:53:19;;;;;;;6.12;3.87;;;;;;;24.37;54.71;100796.26;1779868;79;21469;-78
2022/06/01 09:55:58;;;;;;;4.30;3.10;;;;;;;24.38;54.71;100794.29;1747095;80;21483;-78
2022/06/01 10:07:04;;;;;;;3.98;3.33;;;;;;;24.36;54.67;100783.50;1607593;86;22084;-79
2022/06/01 10:09:32;;;;;;;4.28;3.60;;;;;;;24.37;54.67;100782.92;1652577;84;21484;-80
2022/06/01 10:11:59;;;;;;;3.70;3.22;;;;;;;24.38;54.69;100792.91;1734791;81;21616;-78
2022/06/01 10:14:34;;;;;;;5.25;3.67;;;;;;;24.37;54.71;100779.57;1779794;79;21047;-78
2022/06/01 10:17:21;;;;;;;4.42;3.85;;;;;;;24.38;54.71;100783.17;1779865;79;21176;-78
2022/06/01 10:20:13;;;;;;;4.97;3.67;;;;;;;24.39;54.71;100784.80;1779699;80;21015;-78
2022/06/01 10:23:06;;;;;;;4.78;3.50;;;;;;;24.38;54.70;100777.03;1780650;80;21130;-78
2022/06/01 10:25:56;;;;;;;3.45;3.15;;;;;;;24.39;54.69;100782.02;1771189;80;21056;-78
2022/06/01 10:28:29;;;;;;;4.87;3.70;;;;;;;24.37;54.67;100775.41;1771470;81;21135;-78
2022/06/01 10:30:58;;;;;;;3.92;3.00;;;;;;;24.39;54.67;100773.67;1778774;80;21433;-78
2022/06/01 10:33:30;;;;;;;4.17;3.40;;;;;;;24.38;54.67;100772.86;1782667;80;21432;-78
2022/06/01 10:36:20;;;;;;;5.58;3.58;;;;;;;24.38;54.66;100773.44;1782121;80;21055;-78
2022/06/01 10:39:12;;;;;;;4.58;3.47;;;;;;;24.39;54.68;100768.12;1782694;80;21036;-78
2022/06/01 10:41:43;;;;;;;4.00;3.30;;;;;;;24.38;54.68;100763.13;1782266;80;21033;-78
2022/06/01 10:44:27;;;;;;;4.35;3.27;;;;;;;24.38;54.66;100759.53;1781323;79;21157;-79
2022/06/01 10:47:01;;;;;;;5.22;3.52;;;;;;;24.38;54.66;100753.97;1782008;80;21083;-78
2022/06/01 10:49:38;;;;;;;3.85;3.20;;;;;;;24.39;54.65;100764.76;1782825;79;21474;-78
2022/06/01 10:52:29;;;;;;;3.80;3.30;;;;;;;24.39;54.65;100756.99;1782035;80;21056;-79
2022/06/01 10:55:13;;;;;;;4.15;3.27;;;;;;;24.39;54.67;100756.99;1782475;80;21064;-78
2022/06/01 10:57:43;;;;;;;4.78;3.42;;;;;;;24.38;54.64;100767.88;1782243;79;21542;-78
2022/06/01 11:00:15;;;;;;;5.37;3.60;;;;;;;24.38;54.63;100762.31;1782446;80;21555;-78
2022/06/01 11:02:52;;;;;;;4.67;3.50;;;;;;;24.39;54.64;100759.77;1781676;80;20946;-78
2022/06/01 11:05:31;;;;;;;5.72;3.65;;;;;;;24.38;54.65;100759.53;1782501;80;21037;-78
2022/06/01 11:08:32;;;;;;;3.98;3.27;;;;;;;24.39;54.65;100763.38;1782378;80;21036;-78
2022/06/01 11:11:20;;;;;;;4.95;3.62;;;;;;;24.39;54.65;100759.20;1782295;80;22021;-78
2022/06/01 11:14:10;;;;;;;3.80;3.40;;;;;;;24.39;54.63;100750.04;1782137;79;21407;-78
2022/06/01 11:17:02;;;;;;;3.40;2.98;;;;;;;24.38;54.62;100749.23;1761012;80;21048;-78
2022/06/01 11:19:44;;;;;;;4.12;3.70;;;;;;;24.38;54.61;100745.05;1782286;80;21080;-78
2022/06/01 11:22:33;;;;;;;4.60;3.72;;;;;;;24.37;54.60;100747.59;1778257;80;21017;-78
2022/06/01 11:25:11;;;;;;;3.83;3.27;;;;;;;24.38;54.63;100747.02;1780049;79;21171;-78
2022/06/01 11:28:00;;;;;;;3.83;3.50;;;;;;;24.37;54.62;100742.03;1780016;80;20984;-78
2022/06/01 11:31:10;;;;;;;4.97;3.27;;;;;;;24.38;54.62;100744.23;1711820;80;21560;-78
2022/06/01 11:34:00;;;;;;;3.95;3.40;;;;;;;24.38;54.62;100749.23;1779976;79;21003;-78
2022/06/01 11:36:56;;;;;;;4.13;3.40;;;;;;;24.36;54.62;100740.40;1769650;79;21028;-78
2022/06/01 11:39:54;;;;;;;3.37;3.08;;;;;;;24.37;54.62;100739.83;1780158;79;21327;-78
2022/06/01 11:42:37;;;;;;;4.22;3.40;;;;;;;24.37;54.60;100739.25;1779669;80;20920;-78
2022/06/01 11:45:21;;;;;;;4.45;3.40;;;;;;;24.36;54.62;100729.28;1778272;80;21073;-78
2022/06/01 11:47:56;;;;;;;3.55;3.20;;;;;;;24.37;54.62;100725.92;1759580;80;21134;-78
2022/06/01 11:50:26;;;;;;;4.95;3.65;;;;;;;24.36;54.60;100725.11;1756733;80;21050;-78
2022/06/01 11:53:00;;;;;;;4.28;3.52;;;;;;;24.37;54.63;100717.58;1734747;81;25432;-78
2022/06/01 11:55:38;;;;;;;3.85;3.45;;;;;;;24.37;54.64;100713.41;1735313;81;21071;-78
2022/06/01 11:58:21;;;;;;;4.30;3.10;;;;;;;24.37;54.64;100711.45;1756519;80;21062;-78
2022/06/01 12:00:51;;;;;;;5.67;3.58;;;;;;;24.37;54.64;100704.49;1755687;81;21037;-78
2022/06/01 12:03:26;;;;;;;3.95;3.45;;;;;;;24.37;54.65;100705.88;1756506;80;21471;-78
2022/06/01 12:06:14;;;;;;;3.52;3.22;;;;;;;24.38;54.63;100705.31;1756637;81;21848;-78
2022/06/01 12:08:56;;;;;;;3.77;3.37;;;;;;;24.38;54.64;100701.14;1756311;81;21063;-78
2022/06/01 12:11:42;;;;;;;5.42;3.55;;;;;;;24.39;54.63;100698.02;1736498;81;21075;-78